Time;durP1;ratioP1;P1;durP2;ratioP2;P2;SDS_P1;SDS_P2;PMS_P1;PMS_P2;Temp;Humidity;BMP_temperature;BMP_pressure;BME280_temperature;BME280_humidity;BME280_pressure;Samples;Min_cycle;Max_cycle;Signal;HPM_P1;HPM_P2
2023/01/25 00:01:31;;;;;;;0.10;0.10;;;;;;;-0.67;100.00;102581.22;4992739;28;20185;-74
2023/01/25 00:03:57;;;;;;;0.00;0.00;;;;;;;-0.64;100.00;102570.09;4992113;28;20235;-73
2023/01/25 00:06:22;;;;;;;0.20;0.20;;;;;;;-0.66;100.00;102572.97;4992480;28;20644;-74
2023/01/25 00:08:49;;;;;;;0.37;0.37;;;;;;;-0.71;100.00;102574.56;4992717;28;20264;-76
2023/01/25 00:11:15;;;;;;;0.00;0.00;;;;;;;-0.70;100.00;102562.81;4992605;28;20428;-77
2023/01/25 00:13:41;;;;;;;0.23;0.23;;;;;;;-0.73;100.00;102561.28;4992172;28;20425;-77
2023/01/25 00:16:07;;;;;;;0.20;0.20;;;;;;;-0.70;100.00;102560.94;4992386;28;20416;-77
2023/01/25 00:18:32;;;;;;;0.20;0.20;;;;;;;-0.65;100.00;102560.38;4990732;28;20553;-77
2023/01/25 00:20:57;;;;;;;0.47;0.47;;;;;;;-0.74;100.00;102556.94;4992418;28;20515;-77
2023/01/25 00:23:22;;;;;;;0.07;0.07;;;;;;;-0.73;100.00;102557.78;4992323;28;20744;-76
2023/01/25 00:25:48;;;;;;;0.00;0.00;;;;;;;-0.62;100.00;102552.78;4992181;28;20320;-73
2023/01/25 00:28:13;;;;;;;1.33;1.23;;;;;;;-0.75;100.00;102546.41;4992310;28;20204;-76
2023/01/25 00:30:38;;;;;;;0.20;0.20;;;;;;;-0.75;100.00;102538.34;4992056;28;20174;-76
2023/01/25 00:33:16;;;;;;;0.43;0.43;;;;;;;-0.76;100.00;102539.38;4991770;28;20173;-76
2023/01/25 00:35:43;;;;;;;0.43;0.37;;;;;;;-0.73;100.00;102530.94;4990698;28;20273;-75
2023/01/25 00:38:27;;;;;;;0.20;0.20;;;;;;;-0.80;100.00;102536.22;4991950;28;20946;-74
2023/01/25 00:40:53;;;;;;;0.00;0.00;;;;;;;-0.79;100.00;102532.53;4992017;28;20495;-74
2023/01/25 00:43:18;;;;;;;0.23;0.23;;;;;;;-0.77;100.00;102533.16;4990293;28;20518;-74
2023/01/25 00:45:43;;;;;;;3.20;1.30;;;;;;;-0.80;100.00;102524.66;4991724;28;20181;-76
2023/01/25 00:48:09;;;;;;;0.00;0.00;;;;;;;-0.75;100.00;102525.75;4991996;28;20188;-73
2023/01/25 00:50:36;;;;;;;0.00;0.00;;;;;;;-0.71;100.00;102523.56;4991886;28;20185;-76
2023/01/25 00:53:01;;;;;;;0.77;0.57;;;;;;;-0.68;100.00;102515.97;4991462;28;20258;-77
2023/01/25 00:55:26;;;;;;;2.17;1.97;;;;;;;-0.55;100.00;102518.00;4991996;28;20504;-73
2023/01/25 00:57:52;;;;;;;0.67;0.67;;;;;;;-0.75;100.00;102509.66;5006809;28;20255;-77
2023/01/25 01:00:17;;;;;;;3.17;2.97;;;;;;;-0.88;100.00;102512.16;4990196;28;20204;-76
2023/01/25 01:02:42;;;;;;;0.13;0.13;;;;;;;-0.90;100.00;102511.50;4991407;28;20184;-74
2023/01/25 01:05:08;;;;;;;0.00;0.00;;;;;;;-0.96;100.00;102510.41;4991484;28;20181;-77
2023/01/25 01:07:33;;;;;;;1.23;1.13;;;;;;;-1.01;100.00;102510.16;4991514;28;20184;-78
2023/01/25 01:09:59;;;;;;;0.00;0.00;;;;;;;-1.00;100.00;102516.34;4991456;28;20177;-77
2023/01/25 01:12:24;;;;;;;0.00;0.00;;;;;;;-1.03;100.00;102517.50;4991289;28;20582;-77
2023/01/25 01:14:49;;;;;;;0.20;0.20;;;;;;;-0.87;100.00;102526.41;4991169;28;20583;-77
2023/01/25 01:17:15;;;;;;;0.10;0.10;;;;;;;-0.86;100.00;102518.19;4991212;28;20177;-77
2023/01/25 01:19:40;;;;;;;0.00;0.00;;;;;;;-0.83;100.00;102509.78;4991190;28;20300;-76
2023/01/25 01:22:06;;;;;;;0.27;0.27;;;;;;;-0.76;100.00;102517.91;4991207;28;20210;-73
2023/01/25 01:24:31;;;;;;;0.10;0.10;;;;;;;-0.97;100.00;102506.06;4990838;28;20176;-74
2023/01/25 01:26:56;;;;;;;0.10;0.10;;;;;;;-0.92;100.00;102510.88;4991761;28;20513;-73
2023/01/25 01:29:21;;;;;;;0.43;0.43;;;;;;;-1.00;100.00;102508.28;4991346;28;20169;-74
2023/01/25 01:31:50;;;;;;;0.73;0.73;;;;;;;-1.07;100.00;102508.19;4991168;28;20184;-77
2023/01/25 01:34:16;;;;;;;0.47;0.47;;;;;;;-1.04;100.00;102494.38;4990984;28;20173;-76
2023/01/25 01:36:41;;;;;;;0.00;0.00;;;;;;;-1.06;100.00;102496.44;4991097;28;20427;-76
2023/01/25 01:39:07;;;;;;;0.00;0.00;;;;;;;-1.09;100.00;102496.81;4991396;28;20751;-74
2023/01/25 01:41:33;;;;;;;0.00;0.00;;;;;;;-0.95;100.00;102493.28;5006170;28;20193;-77
2023/01/25 01:43:58;;;;;;;0.10;0.10;;;;;;;-0.86;100.00;102499.41;4990839;28;20759;-75
2023/01/25 01:46:34;;;;;;;0.00;0.00;;;;;;;-0.84;100.00;102494.69;4993867;28;20256;-75
2023/01/25 01:49:04;;;;;;;0.30;0.30;;;;;;;-0.85;100.00;102492.19;4992129;28;20185;-72
2023/01/25 01:51:55;;;;;;;0.43;0.43;;;;;;;-0.83;100.00;102493.69;4993825;28;20470;-73
2023/01/25 01:54:42;;;;;;;0.73;0.73;;;;;;;-0.83;100.00;102488.31;4994910;28;20532;-75
2023/01/25 01:57:07;;;;;;;0.00;0.00;;;;;;;-0.74;100.00;102486.34;4995265;28;21083;-75
2023/01/25 01:59:38;;;;;;;0.90;0.83;;;;;;;-0.70;100.00;102484.97;4995072;28;20840;-72
2023/01/25 02:02:04;;;;;;;0.27;0.27;;;;;;;-0.67;100.00;102473.84;4995017;28;20181;-74
2023/01/25 02:04:29;;;;;;;0.17;0.17;;;;;;;-0.62;100.00;102472.28;4994881;28;20422;-75
2023/01/25 02:07:02;;;;;;;0.00;0.00;;;;;;;-0.54;100.00;102479.41;4994694;28;20174;-72
2023/01/25 02:09:30;;;;;;;0.53;0.53;;;;;;;-0.55;100.00;102467.00;4995255;28;20540;-72
2023/01/25 02:11:57;;;;;;;0.00;0.00;;;;;;;-0.48;100.00;102467.91;4994838;28;20479;-71
2023/01/25 02:14:25;;;;;;;0.00;0.00;;;;;;;-0.49;100.00;102462.72;4994358;28;20412;-72
2023/01/25 02:16:51;;;;;;;0.00;0.00;;;;;;;-0.47;100.00;102469.56;4994822;28;20416;-73
2023/01/25 02:19:35;;;;;;;0.00;0.00;;;;;;;-0.65;100.00;102477.19;4994490;28;20503;-72
2023/01/25 02:22:06;;;;;;;0.50;0.50;;;;;;;-0.54;100.00;102471.34;4994695;28;20185;-72
2023/01/25 02:24:33;;;;;;;0.00;0.00;;;;;;;-0.54;100.00;102471.34;4994169;28;20464;-75
2023/01/25 02:26:58;;;;;;;0.63;0.63;;;;;;;-0.45;100.00;102464.00;4994837;28;20185;-72
2023/01/25 02:29:26;;;;;;;0.00;0.00;;;;;;;-0.48;100.00;102451.78;4994818;28;20425;-73
2023/01/25 02:32:01;;;;;;;0.00;0.00;;;;;;;-0.47;100.00;102455.31;4994391;28;20181;-72
2023/01/25 02:34:26;;;;;;;0.00;0.00;;;;;;;-0.44;100.00;102452.22;4994011;28;20443;-72
2023/01/25 02:36:52;;;;;;;0.00;0.00;;;;;;;-0.44;100.00;102452.22;4992926;28;20931;-72
2023/01/25 02:39:18;;;;;;;0.00;0.00;;;;;;;-0.37;100.00;102448.63;4994249;28;20201;-72
2023/01/25 02:41:48;;;;;;;0.00;0.00;;;;;;;-0.26;100.00;102452.66;4994667;28;20174;-72
2023/01/25 02:44:17;;;;;;;0.00;0.00;;;;;;;-0.47;100.00;102450.75;4993813;28;20491;-72
2023/01/25 02:46:47;;;;;;;0.00;0.00;;;;;;;-0.66;100.00;102457.56;4994114;28;20417;-73
2023/01/25 02:49:14;;;;;;;0.00;0.00;;;;;;;-0.41;100.00;102458.09;4994306;28;20416;-72
2023/01/25 02:51:42;;;;;;;0.00;0.00;;;;;;;-0.54;100.00;102457.94;4993979;28;20431;-72
2023/01/25 02:54:09;;;;;;;3.37;0.70;;;;;;;-0.58;100.00;102453.94;4993635;28;20442;-72
2023/01/25 02:56:35;;;;;;;1.00;1.00;;;;;;;-0.71;100.00;102446.56;4994033;28;20416;-73
2023/01/25 02:59:04;;;;;;;0.00;0.00;;;;;;;-0.54;100.00;102444.50;4993748;28;20205;-72
2023/01/25 03:01:34;;;;;;;0.00;0.00;;;;;;;-0.45;100.00;102446.03;4993816;28;20442;-73
2023/01/25 03:03:59;;;;;;;0.00;0.00;;;;;;;-0.39;100.00;102442.59;4993763;28;20431;-72
2023/01/25 03:06:25;;;;;;;0.00;0.00;;;;;;;-0.32;100.00;102435.44;4993651;28;20755;-72
2023/01/25 03:08:50;;;;;;;0.00;0.00;;;;;;;-0.25;100.00;102432.00;4992546;28;20268;-72
2023/01/25 03:11:17;;;;;;;1.63;1.23;;;;;;;-0.28;100.00;102430.53;4993497;28;20197;-72
2023/01/25 03:13:42;;;;;;;2.67;2.10;;;;;;;-0.52;100.00;102420.16;4993190;28;20523;-74
2023/01/25 03:16:10;;;;;;;0.00;0.00;;;;;;;-0.64;100.00;102419.81;4993531;28;20531;-75
2023/01/25 03:18:36;;;;;;;0.00;0.00;;;;;;;-0.69;100.00;102406.94;4993388;28;20224;-75
2023/01/25 03:21:16;;;;;;;2.33;2.13;;;;;;;-0.81;100.00;102408.44;4993421;28;20417;-74
2023/01/25 03:23:43;;;;;;;0.57;0.57;;;;;;;-0.85;100.00;102409.03;4993653;28;20420;-74
2023/01/25 03:26:13;;;;;;;1.17;1.10;;;;;;;-0.87;100.00;102401.13;5008261;28;20515;-74
2023/01/25 03:28:40;;;;;;;0.20;0.20;;;;;;;-0.89;100.00;102405.88;4993424;28;20412;-75
2023/01/25 03:31:07;;;;;;;0.50;0.50;;;;;;;-0.88;100.00;102402.16;4993366;28;20421;-72
2023/01/25 03:33:32;;;;;;;0.87;0.63;;;;;;;-0.79;100.00;102409.09;4992990;28;20420;-75
2023/01/25 03:35:58;;;;;;;0.40;0.40;;;;;;;-0.71;100.00;102408.16;4993211;28;20417;-75
2023/01/25 03:38:24;;;;;;;1.07;1.00;;;;;;;-0.66;100.00;102395.84;4993134;28;20165;-74
2023/01/25 03:40:49;;;;;;;0.10;0.10;;;;;;;-0.71;100.00;102402.81;4993025;28;20503;-75
2023/01/25 03:43:15;;;;;;;0.00;0.00;;;;;;;-0.94;100.00;102397.56;4992921;28;20184;-75
2023/01/25 03:45:41;;;;;;;0.00;0.00;;;;;;;-0.97;100.00;102396.09;4993007;28;20613;-75
2023/01/25 03:48:06;;;;;;;0.00;0.00;;;;;;;-0.97;100.00;102392.56;4992996;28;20178;-75
2023/01/25 03:50:32;;;;;;;0.00;0.00;;;;;;;-0.95;100.00;102406.63;4992895;28;20181;-72
2023/01/25 03:53:15;;;;;;;0.00;0.00;;;;;;;-0.89;100.00;102387.09;4992559;28;20221;-72
2023/01/25 03:55:41;;;;;;;12.80;12.23;;;;;;;-0.74;100.00;102384.38;5007921;28;20184;-72
2023/01/25 03:58:06;;;;;;;0.00;0.00;;;;;;;-0.77;100.00;102376.69;4992995;28;20421;-72
2023/01/25 04:00:32;;;;;;;0.00;0.00;;;;;;;-0.88;100.00;102375.31;4992647;28;20308;-72
2023/01/25 04:02:57;;;;;;;0.00;0.00;;;;;;;-0.73;100.00;102378.81;4992599;28;20177;-73
2023/01/25 04:05:22;;;;;;;0.00;0.00;;;;;;;-0.82;100.00;102371.91;4991294;28;20181;-72
2023/01/25 04:07:48;;;;;;;0.67;0.67;;;;;;;-0.63;100.00;102376.66;5007578;28;20629;-73
2023/01/25 04:10:13;;;;;;;0.00;0.00;;;;;;;-0.59;100.00;102369.06;4992512;28;20181;-72
2023/01/25 04:12:38;;;;;;;0.40;0.40;;;;;;;-0.52;100.00;102363.78;4992351;28;20184;-72
2023/01/25 04:15:04;;;;;;;0.87;0.87;;;;;;;-0.49;100.00;102360.69;4991820;28;20176;-75
2023/01/25 04:17:29;;;;;;;0.00;0.00;;;;;;;-0.53;100.00;102357.56;4992706;28;20173;-73
2023/01/25 04:19:55;;;;;;;1.37;1.37;;;;;;;-0.64;100.00;102358.91;4992223;28;20589;-74
2023/01/25 04:22:20;;;;;;;0.00;0.00;;;;;;;-0.60;100.00;102349.44;4992261;28;20172;-74
2023/01/25 04:24:45;;;;;;;0.00;0.00;;;;;;;-0.73;100.00;102351.97;4992161;28;20510;-74
2023/01/25 04:27:11;;;;;;;0.00;0.00;;;;;;;-0.75;100.00;102348.66;4992102;28;20668;-74
2023/01/25 04:29:36;;;;;;;0.00;0.00;;;;;;;-0.58;100.00;102345.72;4992323;28;20177;-74
2023/01/25 04:32:01;;;;;;;3.90;3.60;;;;;;;-0.49;100.00;102332.00;4992022;28;20559;-74
2023/01/25 04:34:27;;;;;;;0.00;0.00;;;;;;;-0.46;100.00;102341.53;4991830;28;20166;-74
2023/01/25 04:36:52;;;;;;;0.33;0.33;;;;;;;-0.42;100.00;102332.91;4991822;28;20512;-74
2023/01/25 04:39:18;;;;;;;0.10;0.10;;;;;;;-0.46;100.00;102342.34;4991901;28;20205;-75
2023/01/25 04:41:43;;;;;;;0.00;0.00;;;;;;;-0.60;100.00;102338.69;4991966;28;20328;-74
2023/01/25 04:44:08;;;;;;;0.00;0.00;;;;;;;-0.71;100.00;102333.84;4991631;28;20177;-74
2023/01/25 04:46:34;;;;;;;20.43;18.07;;;;;;;-0.53;100.00;102332.59;4991856;28;20661;-74
2023/01/25 04:48:59;;;;;;;0.73;0.73;;;;;;;-0.46;100.00;102330.78;4991729;28;20184;-75
2023/01/25 04:51:24;;;;;;;2.67;0.40;;;;;;;-0.41;100.00;102331.88;4991659;28;20169;-75
2023/01/25 04:53:50;;;;;;;0.00;0.00;;;;;;;-0.57;100.00;102334.00;4991447;28;20185;-74
2023/01/25 04:56:15;;;;;;;0.00;0.00;;;;;;;-0.61;100.00;102331.66;4991593;28;20176;-74
2023/01/25 04:58:40;;;;;;;0.00;0.00;;;;;;;-0.47;100.00;102326.44;4991618;28;20184;-74
2023/01/25 05:01:06;;;;;;;2.13;1.57;;;;;;;-0.49;100.00;102325.81;4991508;28;20173;-75
2023/01/25 05:03:31;;;;;;;0.10;0.10;;;;;;;-0.51;100.00;102322.47;4991285;28;20219;-74
2023/01/25 05:05:57;;;;;;;1.00;1.00;;;;;;;-0.55;100.00;102316.69;4991674;28;20192;-74
2023/01/25 05:08:22;;;;;;;1.90;1.80;;;;;;;-0.59;100.00;102320.75;4990860;28;20188;-74
2023/01/25 05:10:47;;;;;;;0.00;0.00;;;;;;;-0.71;100.00;102316.94;5006426;28;20195;-74
2023/01/25 05:13:13;;;;;;;0.00;0.00;;;;;;;-0.73;100.00;102319.78;4991321;28;20169;-74
2023/01/25 05:15:38;;;;;;;1.70;1.63;;;;;;;-0.71;100.00;102317.75;4991366;28;20169;-75
2023/01/25 05:18:03;;;;;;;0.67;0.67;;;;;;;-0.71;100.00;102319.59;4991282;28;20243;-74
2023/01/25 05:20:29;;;;;;;0.40;0.40;;;;;;;-0.65;100.00;102314.28;4989835;28;20250;-75
2023/01/25 05:22:54;;;;;;;0.00;0.00;;;;;;;-0.58;100.00;102316.19;4989686;28;20169;-75
2023/01/25 05:28:05;;;;;;;0.00;0.00;;;;;;;-0.57;100.00;102297.25;4991581;28;20184;-74
2023/01/25 05:30:31;;;;;;;0.57;0.57;;;;;;;-0.59;100.00;102299.28;5006256;28;20812;-74
2023/01/25 05:32:56;;;;;;;1.30;1.27;;;;;;;-0.65;100.00;102295.50;4990867;28;20203;-74
2023/01/25 05:35:21;;;;;;;0.70;0.70;;;;;;;-0.63;100.00;102298.00;5006133;28;20169;-74
2023/01/25 05:37:47;;;;;;;1.80;1.70;;;;;;;-0.68;100.00;102290.53;4990856;28;20184;-75
2023/01/25 05:40:12;;;;;;;0.87;0.87;;;;;;;-0.73;100.00;102298.31;4991260;28;20291;-74
2023/01/25 05:42:38;;;;;;;0.77;0.77;;;;;;;-0.71;100.00;102290.09;4990815;28;20533;-75
2023/01/25 05:45:04;;;;;;;2.50;2.33;;;;;;;-0.82;100.00;102286.06;4991016;28;20215;-75
2023/01/25 05:47:29;;;;;;;2.50;2.37;;;;;;;-0.80;100.00;102291.22;4990979;28;20178;-75
2023/01/25 05:49:54;;;;;;;1.13;1.13;;;;;;;-0.85;100.00;102285.59;4990882;28;20544;-74
2023/01/25 05:52:20;;;;;;;3.23;2.87;;;;;;;-0.88;100.00;102278.75;4990752;28;20400;-74
2023/01/25 05:54:45;;;;;;;2.33;2.23;;;;;;;-0.89;100.00;102282.44;5005676;28;20659;-74
2023/01/25 05:57:13;;;;;;;0.67;0.67;;;;;;;-0.88;100.00;102284.13;4990852;28;20245;-74
2023/01/25 05:59:38;;;;;;;0.00;0.00;;;;;;;-0.83;100.00;102281.72;4990889;28;20200;-75
2023/01/25 06:02:03;;;;;;;1.23;1.23;;;;;;;-0.85;100.00;102280.25;4990969;28;20431;-74
2023/01/25 06:04:28;;;;;;;0.00;0.00;;;;;;;-0.80;100.00;102284.00;4990670;28;20181;-74
2023/01/25 06:06:54;;;;;;;0.00;0.00;;;;;;;-0.71;100.00;102284.72;4991187;28;20181;-74
2023/01/25 06:09:19;;;;;;;0.23;0.23;;;;;;;-0.67;100.00;102284.13;4990682;28;20196;-76
2023/01/25 06:11:45;;;;;;;0.40;0.27;;;;;;;-0.56;100.00;102281.97;4990837;28;20173;-74
2023/01/25 06:14:10;;;;;;;1.10;1.03;;;;;;;-0.54;100.00;102277.25;4990638;28;20181;-74
2023/01/25 06:16:35;;;;;;;0.37;0.37;;;;;;;-0.48;100.00;102271.91;4990704;28;20185;-74
2023/01/25 06:19:03;;;;;;;0.13;0.13;;;;;;;-0.45;100.00;102278.75;4990647;28;22393;-74
2023/01/25 06:21:29;;;;;;;0.93;0.93;;;;;;;-0.48;100.00;102263.03;4990576;28;20177;-74
2023/01/25 06:23:54;;;;;;;0.00;0.00;;;;;;;-0.52;100.00;102262.59;4990221;28;20495;-74
2023/01/25 06:26:19;;;;;;;0.57;0.57;;;;;;;-0.56;100.00;102269.38;4990690;28;20181;-74
2023/01/25 06:28:45;;;;;;;0.73;0.73;;;;;;;-0.53;100.00;102266.31;4990681;28;20185;-74
2023/01/25 06:31:13;;;;;;;1.90;1.80;;;;;;;-0.70;100.00;102262.22;4990668;28;20514;-74
2023/01/25 06:33:41;;;;;;;2.10;1.73;;;;;;;-0.82;100.00;102266.44;4990295;28;20177;-74
2023/01/25 06:36:12;;;;;;;0.40;0.40;;;;;;;-0.82;100.00;102275.31;4990945;28;20436;-75
2023/01/25 06:38:38;;;;;;;0.63;0.63;;;;;;;-0.79;100.00;102261.50;4995425;28;20849;-75
2023/01/25 06:41:05;;;;;;;2.63;2.20;;;;;;;-0.77;100.00;102266.69;4997790;28;20476;-75
2023/01/25 06:43:32;;;;;;;5.67;2.53;;;;;;;-0.81;100.00;102258.19;4996066;28;20818;-75
2023/01/25 06:46:03;;;;;;;0.00;0.00;;;;;;;-0.78;100.00;102260.50;5009653;28;20888;-75
2023/01/25 06:48:30;;;;;;;2.00;2.00;;;;;;;-0.69;100.00;102259.34;4994190;28;20425;-77
2023/01/25 06:50:58;;;;;;;0.00;0.00;;;;;;;-0.70;100.00;102254.19;4994014;28;20428;-76
2023/01/25 06:53:26;;;;;;;0.43;0.43;;;;;;;-0.55;100.00;102262.16;5038559;22;20577;-78
2023/01/25 06:55:58;;;;;;;0.00;0.00;;;;;;;-0.53;100.00;102255.56;5033377;28;20195;-78
2023/01/25 06:58:25;;;;;;;3.40;3.27;;;;;;;-0.48;100.00;102269.22;5031906;28;20435;-79
2023/01/25 07:00:51;;;;;;;0.43;0.43;;;;;;;-0.46;100.00;102266.34;5031949;28;20469;-78
2023/01/25 07:03:16;;;;;;;1.73;1.70;;;;;;;-0.46;100.00;102263.66;5032925;28;20430;-78
2023/01/25 07:05:42;;;;;;;0.00;0.00;;;;;;;-0.50;100.00;102267.78;5033086;28;20180;-77
2023/01/25 07:08:07;;;;;;;0.10;0.10;;;;;;;-0.51;100.00;102261.56;5031880;28;20179;-77
2023/01/25 07:10:32;;;;;;;0.67;0.67;;;;;;;-0.53;100.00;102274.34;5032593;28;20195;-78
2023/01/25 07:12:58;;;;;;;2.60;2.40;;;;;;;-0.71;100.00;102253.34;5032496;28;20619;-77
2023/01/25 07:15:23;;;;;;;0.00;0.00;;;;;;;-0.71;100.00;102256.03;5032969;28;20661;-78
2023/01/25 07:17:48;;;;;;;0.00;0.00;;;;;;;-0.69;100.00;102258.53;5032904;28;20698;-79
2023/01/25 07:20:14;;;;;;;0.67;0.67;;;;;;;-0.69;100.00;102251.31;5031368;28;20196;-78
2023/01/25 07:22:39;;;;;;;1.33;1.33;;;;;;;-0.69;100.00;102253.97;5031286;28;20263;-79
2023/01/25 07:25:05;;;;;;;0.00;0.00;;;;;;;-0.69;100.00;102253.16;5032925;28;20182;-79
2023/01/25 07:27:34;;;;;;;4.63;4.23;;;;;;;-0.68;100.00;102252.97;5033264;28;20176;-79
2023/01/25 07:30:00;;;;;;;0.10;0.10;;;;;;;-0.63;100.00;102249.69;5037794;28;20186;-79
2023/01/25 07:32:26;;;;;;;0.10;0.10;;;;;;;-0.58;100.00;102247.25;5039983;28;20436;-78
2023/01/25 07:34:51;;;;;;;0.00;0.00;;;;;;;-0.52;100.00;102242.97;5036354;28;20423;-79
2023/01/25 07:37:16;;;;;;;2.90;2.80;;;;;;;-0.38;100.00;102252.81;5032811;28;20198;-79
2023/01/25 07:39:48;;;;;;;1.43;1.37;;;;;;;-0.48;100.00;102247.75;5032393;28;20221;-79
2023/01/25 07:42:14;;;;;;;0.00;0.00;;;;;;;-0.42;100.00;102249.69;5032216;28;20191;-81
2023/01/25 07:44:39;;;;;;;1.20;1.20;;;;;;;-0.37;100.00;102251.78;5032261;28;20419;-80
2023/01/25 07:47:04;;;;;;;0.53;0.53;;;;;;;-0.35;100.00;102253.25;5032642;28;20254;-79
2023/01/25 07:49:30;;;;;;;2.67;2.43;;;;;;;-0.41;100.00;102253.19;5031485;28;20643;-79
2023/01/25 07:51:55;;;;;;;0.40;0.40;;;;;;;-0.51;100.00;102256.19;5032389;28;20331;-79
2023/01/25 07:54:21;;;;;;;0.00;0.00;;;;;;;-0.50;100.00;102252.50;5030638;28;20647;-79
2023/01/25 07:56:46;;;;;;;3.37;1.23;;;;;;;-0.45;100.00;102258.09;5031959;28;20188;-78
2023/01/25 07:59:13;;;;;;;1.83;1.73;;;;;;;-0.50;100.00;102252.50;5032143;28;20192;-79
2023/01/25 08:01:39;;;;;;;0.93;0.93;;;;;;;-0.51;100.00;102245.47;5030783;28;20184;-78
2023/01/25 08:04:04;;;;;;;4.60;3.57;;;;;;;-0.55;100.00;102257.63;5031680;28;20446;-79
2023/01/25 08:06:37;;;;;;;1.97;1.87;;;;;;;-0.58;100.00;102255.28;5031960;28;20294;-82
2023/01/25 08:09:14;;;;;;;0.00;0.00;;;;;;;-0.62;100.00;102251.34;5032115;28;20179;-77
2023/01/25 08:11:40;;;;;;;0.00;0.00;;;;;;;-0.55;100.00;102246.06;5032322;28;20455;-77
2023/01/25 08:14:07;;;;;;;0.17;0.17;;;;;;;-0.49;100.00;102247.94;5032231;28;20415;-82
2023/01/25 08:16:32;;;;;;;0.33;0.33;;;;;;;-0.48;100.00;102242.38;5032149;28;20557;-82
2023/01/25 08:21:44;;;;;;;0.00;0.00;;;;;;;-0.51;100.00;102247.31;4995390;23;20603;-73
2023/01/25 08:24:10;;;;;;;0.83;0.83;;;;;;;-0.53;100.00;102234.09;5003591;28;20431;-80
2023/01/25 08:26:35;;;;;;;1.43;1.37;;;;;;;-0.55;100.00;102232.63;4992664;28;20671;-73
2023/01/25 08:29:01;;;;;;;2.20;2.10;;;;;;;-0.60;100.00;102236.72;4992728;28;20205;-73
2023/01/25 08:31:30;;;;;;;2.13;1.03;;;;;;;-0.65;100.00;102231.09;4992022;28;20232;-80
2023/01/25 08:33:56;;;;;;;0.37;0.37;;;;;;;-0.64;100.00;102227.38;4992350;28;20428;-85
2023/01/25 08:36:26;;;;;;;0.90;0.90;;;;;;;-0.64;100.00;102229.25;4991499;28;20428;-76
2023/01/25 08:38:57;;;;;;;1.57;1.47;;;;;;;-0.63;100.00;102228.22;4992386;28;20404;-80
2023/01/25 08:41:23;;;;;;;3.30;3.07;;;;;;;-0.62;100.00;102227.19;4992628;28;20424;-85
2023/01/25 08:43:51;;;;;;;1.53;1.43;;;;;;;-0.62;100.00;102219.97;4992717;28;20412;-84
2023/01/25 08:46:16;;;;;;;0.87;0.87;;;;;;;-0.69;100.00;102211.03;4992324;28;20425;-80
2023/01/25 08:48:42;;;;;;;0.67;0.27;;;;;;;-0.64;100.00;102215.81;4992589;28;20421;-83
2023/01/25 08:51:11;;;;;;;3.67;3.47;;;;;;;-0.67;100.00;102214.38;4992607;28;20183;-86
2023/01/25 08:53:36;;;;;;;3.70;3.47;;;;;;;-0.76;100.00;102218.19;4992514;28;20177;-87
2023/01/25 08:56:06;;;;;;;2.30;2.13;;;;;;;-0.90;100.00;102209.19;4992326;28;20425;-78
2023/01/25 08:58:33;;;;;;;6.23;5.73;;;;;;;-0.94;100.00;102202.56;4992163;28;20247;-75
2023/01/25 09:01:06;;;;;;;9.03;0.83;;;;;;;-0.93;100.00;102203.38;4991506;28;20499;-71
2023/01/25 09:03:35;;;;;;;0.83;0.83;;;;;;;-0.91;100.00;102201.34;4992097;28;20417;-76
2023/01/25 09:06:00;;;;;;;2.90;2.70;;;;;;;-0.94;100.00;102191.81;4991915;28;20423;-81
2023/01/25 09:08:26;;;;;;;0.97;0.97;;;;;;;-0.91;100.00;102191.44;4991863;28;20424;-76
2023/01/25 09:10:51;;;;;;;1.87;1.80;;;;;;;-0.87;100.00;102191.88;4991668;28;20186;-80
2023/01/25 09:13:16;;;;;;;0.40;0.20;;;;;;;-0.90;100.00;102203.00;4990393;28;20264;-77
2023/01/25 09:15:41;;;;;;;0.00;0.00;;;;;;;-0.88;100.00;102198.25;4991732;28;20179;-78
2023/01/25 09:18:08;;;;;;;1.63;1.53;;;;;;;-0.83;100.00;102198.53;4991759;28;20267;-79
2023/01/25 09:20:33;;;;;;;2.67;2.43;;;;;;;-0.84;100.00;102194.19;4989918;28;20216;-75
2023/01/25 09:22:58;;;;;;;3.13;2.83;;;;;;;-0.82;100.00;102189.47;4991558;28;20431;-78
2023/01/25 09:25:23;;;;;;;3.03;2.87;;;;;;;-0.85;100.00;102181.81;4991945;28;20185;-75
2023/01/25 09:27:50;;;;;;;1.40;1.23;;;;;;;-0.77;100.00;102183.50;4991459;28;20173;-78
2023/01/25 09:30:16;;;;;;;0.40;0.40;;;;;;;-0.72;100.00;102187.28;4991306;28;20173;-73
2023/01/25 09:32:42;;;;;;;1.40;0.87;;;;;;;-0.73;100.00;102190.97;4991701;28;20544;-72
2023/01/25 09:35:07;;;;;;;5.77;5.20;;;;;;;-0.78;100.00;102195.25;4991443;28;21134;-74
2023/01/25 09:37:33;;;;;;;0.00;0.00;;;;;;;-0.84;100.00;102183.47;4991484;28;20224;-77
2023/01/25 09:39:58;;;;;;;0.83;0.83;;;;;;;-0.81;100.00;102177.69;4991261;28;20201;-78
2023/01/25 09:43:19;;;;;;;0.00;0.00;;;;;;;-0.74;100.00;102172.38;4991672;28;20177;-75
2023/01/25 09:45:46;;;;;;;1.03;1.03;;;;;;;-0.67;100.00;102174.09;4982283;28;20201;-72
2023/01/25 09:48:24;;;;;;;1.63;1.53;;;;;;;-0.68;100.00;102175.13;4991432;28;20820;-83
2023/01/25 09:51:17;;;;;;;0.83;0.80;;;;;;;-0.75;100.00;102166.19;4991238;28;20495;-78
2023/01/25 09:53:49;;;;;;;8.90;3.93;;;;;;;-0.86;100.00;102160.53;4991414;28;20415;-81
2023/01/25 09:56:33;;;;;;;3.50;2.97;;;;;;;-0.98;100.00;102144.97;4991598;28;20413;-81
2023/01/25 09:59:05;;;;;;;1.43;1.43;;;;;;;-0.94;100.00;102146.22;4992055;28;20773;-84
2023/01/25 10:01:43;;;;;;;1.00;0.87;;;;;;;-0.84;100.00;102139.72;4991216;28;20416;-83
2023/01/25 10:04:25;;;;;;;1.40;1.30;;;;;;;-0.83;100.00;102133.31;4991311;28;20478;-76
2023/01/25 10:06:59;;;;;;;1.13;1.03;;;;;;;-0.78;100.00;102129.00;4991227;28;20877;-76
2023/01/25 10:09:41;;;;;;;0.00;0.00;;;;;;;-0.76;100.00;102136.88;4991369;28;20420;-77
2023/01/25 10:12:18;;;;;;;2.70;2.50;;;;;;;-0.71;100.00;102135.28;4992576;28;20898;-76
2023/01/25 10:14:43;;;;;;;0.90;0.77;;;;;;;-0.72;100.00;102128.25;4995322;28;20455;-76
2023/01/25 10:17:19;;;;;;;3.10;2.90;;;;;;;-0.75;100.00;102127.78;4995407;28;20448;-72
2023/01/25 10:19:50;;;;;;;1.60;0.70;;;;;;;-0.73;100.00;102121.19;4995364;28;20201;-80
2023/01/25 10:22:21;;;;;;;2.67;2.53;;;;;;;-0.70;100.00;102115.47;4995477;28;20420;-83
2023/01/25 10:25:23;;;;;;;0.77;0.77;;;;;;;-0.80;100.00;102114.97;4995540;28;20405;-81
2023/01/25 10:28:10;;;;;;;5.07;2.10;;;;;;;-0.81;100.00;102113.31;4995427;28;20505;-74
2023/01/25 10:30:46;;;;;;;0.70;0.70;;;;;;;-0.79;100.00;102097.00;4994808;28;20498;-82
2023/01/25 10:33:18;;;;;;;1.40;1.40;;;;;;;-0.75;100.00;102101.78;4994951;28;20411;-79
2023/01/25 10:35:45;;;;;;;2.07;1.97;;;;;;;-0.72;100.00;102098.72;4994993;28;20422;-75
2023/01/25 10:38:17;;;;;;;1.17;1.17;;;;;;;-0.76;100.00;102091.25;4994737;28;20424;-70
2023/01/25 10:40:49;;;;;;;1.03;1.03;;;;;;;-0.74;100.00;102081.97;4993098;28;20463;-73
2023/01/25 10:43:20;;;;;;;2.27;2.17;;;;;;;-0.73;100.00;102086.31;4994314;28;20962;-70
2023/01/25 10:45:46;;;;;;;2.63;2.33;;;;;;;-0.76;100.00;102073.28;4992769;28;20424;-70
2023/01/25 10:48:21;;;;;;;0.20;0.20;;;;;;;-0.70;100.00;102075.22;4994100;28;20420;-70
2023/01/25 10:50:56;;;;;;;5.77;1.00;;;;;;;-0.71;100.00;102062.00;4993570;28;20478;-78
2023/01/25 10:53:42;;;;;;;2.47;2.37;;;;;;;-0.67;100.00;102061.41;4993075;28;20504;-73
2023/01/25 10:56:18;;;;;;;2.10;1.97;;;;;;;-0.67;100.00;102057.88;4994077;28;20419;-74
2023/01/25 10:58:46;;;;;;;0.33;0.33;;;;;;;-0.74;100.00;102057.81;4994312;28;20736;-78
2023/01/25 11:01:33;;;;;;;4.70;3.50;;;;;;;-0.82;100.00;102049.13;4995732;28;20569;-75
2023/01/25 11:04:00;;;;;;;2.23;2.03;;;;;;;-0.88;100.00;102057.94;4993244;28;20436;-76
2023/01/25 11:06:37;;;;;;;2.70;2.50;;;;;;;-0.88;100.00;102044.53;4993742;28;20452;-79
2023/01/25 11:09:20;;;;;;;1.23;1.23;;;;;;;-0.98;100.00;102040.34;4993459;28;20825;-79
2023/01/25 11:12:19;;;;;;;6.90;4.10;;;;;;;-0.92;100.00;102036.03;4993315;28;20425;-75
2023/01/25 11:14:48;;;;;;;3.87;2.87;;;;;;;-0.89;100.00;102035.66;4993553;28;20412;-75
2023/01/25 11:17:30;;;;;;;1.87;1.77;;;;;;;-0.87;100.00;102024.72;4993453;28;20423;-77
2023/01/25 11:20:15;;;;;;;4.70;4.30;;;;;;;-0.88;100.00;102029.25;4993242;28;20460;-75
2023/01/25 11:22:49;;;;;;;5.73;5.03;;;;;;;-0.99;100.00;102027.13;4993049;28;20436;-75
2023/01/25 11:25:25;;;;;;;3.37;3.17;;;;;;;-0.97;100.00;102023.22;4992816;28;20420;-75
2023/01/25 11:27:50;;;;;;;2.10;2.00;;;;;;;-0.98;100.00;102016.22;4993180;28;20762;-77